sensor_id;sensor_type;location;lat;lon;timestamp;pressure;altitude;pressure_sealevel;temperature;humidity
26178;BME280;13924;47.670;10.310;2023-12-20T00:00:57;93350;;;4.6;100.0
26178;BME280;13924;47.670;10.310;2023-12-20T00:15:37;93300;;;4.6;100.0
26178;BME280;13924;47.670;10.310;2023-12-20T00:30:39;93260;;;4.7;100.0
26178;BME280;13924;47.670;10.310;2023-12-20T00:45:39;93240;;;4.9;100.0
26178;BME280;13924;47.670;10.310;2023-12-20T01:00:39;93280;;;5.0;100.0
26178;BME280;13924;47.670;10.310;2023-12-20T01:15:39;93270;;;4.6;100.0
26178;BME280;13924;47.670;10.310;2023-12-20T01:30:40;93300;;;4.3;100.0
26178;BME280;13924;47.670;10.310;2023-12-20T01:45:41;93290;;;4.3;100.0
26178;BME280;13924;47.670;10.310;2023-12-20T02:00:41;93260;;;4.4;100.0
26178;BME280;13924;47.670;10.310;2023-12-20T02:01:27;93260;;;4.4;100.0
26178;BME280;13924;47.670;10.310;2023-12-20T02:15:42;93230;;;4.5;100.0
26178;BME280;13924;47.670;10.310;2023-12-20T02:30:43;93230;;;4.5;100.0
26178;BME280;13924;47.670;10.310;2023-12-20T02:45:48;93240;;;4.9;100.0
26178;BME280;13924;47.670;10.310;2023-12-20T03:00:44;93240;;;5.0;100.0
26178;BME280;13924;47.670;10.310;2023-12-20T03:15:45;93230;;;5.2;100.0
26178;BME280;13924;47.670;10.310;2023-12-20T03:30:49;93230;;;5.2;100.0
26178;BME280;13924;47.670;10.310;2023-12-20T03:45:46;93260;;;5.5;100.0
26178;BME280;13924;47.670;10.310;2023-12-20T04:00:47;93270;;;5.3;100.0
26178;BME280;13924;47.670;10.310;2023-12-20T04:15:47;93430;;;4.7;100.0
26178;BME280;13924;47.670;10.310;2023-12-20T04:30:50;93430;;;4.7;100.0
26178;BME280;13924;47.670;10.310;2023-12-20T04:45:48;93470;;;4.5;100.0
26178;BME280;13924;47.670;10.310;2023-12-20T05:00:49;93640;;;4.5;100.0
26178;BME280;13924;47.670;10.310;2023-12-20T05:15:50;93780;;;4.4;100.0
26178;BME280;13924;47.670;10.310;2023-12-20T05:30:51;94020;;;4.2;100.0
26178;BME280;13924;47.670;10.310;2023-12-20T05:45:51;94180;;;4.0;100.0
26178;BME280;13924;47.670;10.310;2023-12-20T06:00:57;94260;;;3.5;100.0
26178;BME280;13924;47.670;10.310;2023-12-20T06:15:54;94300;;;3.1;100.0
26178;BME280;13924;47.670;10.310;2023-12-20T06:30:57;94300;;;3.1;100.0
26178;BME280;13924;47.670;10.310;2023-12-20T06:45:55;94360;;;3.0;100.0
26178;BME280;13924;47.670;10.310;2023-12-20T07:00:55;94420;;;2.8;100.0
26178;BME280;13924;47.670;10.310;2023-12-20T07:15:55;94420;;;2.8;100.0
26178;BME280;13924;47.670;10.310;2023-12-20T07:18:04;94420;;;2.8;100.0
26178;BME280;13924;47.670;10.310;2023-12-20T07:33:05;94440;;;2.8;100.0
26178;BME280;13924;47.670;10.310;2023-12-20T07:48:07;94440;;;2.8;100.0
26178;BME280;13924;47.670;10.310;2023-12-20T08:03:07;94440;;;2.9;100.0
26178;BME280;13924;47.670;10.310;2023-12-20T08:18:07;94470;;;3.0;100.0
26178;BME280;13924;47.670;10.310;2023-12-20T08:33:08;94470;;;3.0;100.0
26178;BME280;13924;47.670;10.310;2023-12-20T08:48:09;94460;;;3.1;100.0
26178;BME280;13924;47.670;10.310;2023-12-20T09:03:09;94450;;;3.2;100.0
26178;BME280;13924;47.670;10.310;2023-12-20T09:18:11;94430;;;3.3;100.0
26178;BME280;13924;47.670;10.310;2023-12-20T09:33:11;94440;;;3.4;100.0
26178;BME280;13924;47.670;10.310;2023-12-20T09:48:18;94440;;;3.4;100.0
26178;BME280;13924;47.670;10.310;2023-12-20T10:03:14;94420;;;3.6;100.0
26178;BME280;13924;47.670;10.310;2023-12-20T10:18:13;94390;;;3.7;100.0
26178;BME280;13924;47.670;10.310;2023-12-20T10:33:13;94380;;;3.7;100.0
26178;BME280;13924;47.670;10.310;2023-12-20T10:48:21;94360;;;3.9;100.0
26178;BME280;13924;47.670;10.310;2023-12-20T11:03:17;94330;;;3.8;100.0
26178;BME280;13924;47.670;10.310;2023-12-20T11:18:17;94330;;;3.9;100.0
26178;BME280;13924;47.670;10.310;2023-12-20T11:33:17;94350;;;4.0;100.0
26178;BME280;13924;47.670;10.310;2023-12-20T11:48:17;94380;;;3.8;100.0
26178;BME280;13924;47.670;10.310;2023-12-20T12:03:19;94370;;;3.8;100.0
26178;BME280;13924;47.670;10.310;2023-12-20T12:18:19;94370;;;3.6;100.0
26178;BME280;13924;47.670;10.310;2023-12-20T12:33:19;94360;;;3.8;100.0
26178;BME280;13924;47.670;10.310;2023-12-20T12:48:20;94340;;;3.9;100.0
26178;BME280;13924;47.670;10.310;2023-12-20T13:03:20;94330;;;3.9;100.0
26178;BME280;13924;47.670;10.310;2023-12-20T13:18:22;94340;;;4.2;100.0
26178;BME280;13924;47.670;10.310;2023-12-20T13:33:21;94330;;;4.2;100.0
26178;BME280;13924;47.670;10.310;2023-12-20T13:48:23;94310;;;4.1;100.0
26178;BME280;13924;47.670;10.310;2023-12-20T14:03:24;94290;;;4.2;100.0
26178;BME280;13924;47.670;10.310;2023-12-20T14:18:25;94290;;;4.1;100.0
26178;BME280;13924;47.670;10.310;2023-12-20T14:33:24;94230;;;4.0;100.0
26178;BME280;13924;47.670;10.310;2023-12-20T14:48:25;94210;;;4.0;100.0
26178;BME280;13924;47.670;10.310;2023-12-20T15:03:25;94170;;;3.9;100.0
26178;BME280;13924;47.670;10.310;2023-12-20T15:18:26;94140;;;3.8;100.0
26178;BME280;13924;47.670;10.310;2023-12-20T15:33:28;94140;;;3.8;100.0
26178;BME280;13924;47.670;10.310;2023-12-20T15:48:30;94100;;;3.7;100.0
26178;BME280;13924;47.670;10.310;2023-12-20T16:03:30;94070;;;3.5;100.0
26178;BME280;13924;47.670;10.310;2023-12-20T16:18:30;94030;;;3.4;100.0
26178;BME280;13924;47.670;10.310;2023-12-20T16:33:30;93980;;;3.3;100.0
26178;BME280;13924;47.670;10.310;2023-12-20T16:48:30;93980;;;3.3;100.0
26178;BME280;13924;47.670;10.310;2023-12-20T17:03:32;93990;;;3.1;100.0
26178;BME280;13924;47.670;10.310;2023-12-20T17:18:32;94070;;;3.1;100.0
26178;BME280;13924;47.670;10.310;2023-12-20T17:33:33;94060;;;2.9;100.0
26178;BME280;13924;47.670;10.310;2023-12-20T17:48:34;94040;;;2.8;100.0
26178;BME280;13924;47.670;10.310;2023-12-20T18:03:35;93960;;;2.8;100.0
26178;BME280;13924;47.670;10.310;2023-12-20T18:18:35;93890;;;2.9;100.0
26178;BME280;13924;47.670;10.310;2023-12-20T18:33:35;93810;;;2.8;100.0
26178;BME280;13924;47.670;10.310;2023-12-20T18:48:39;93810;;;2.8;100.0
26178;BME280;13924;47.670;10.310;2023-12-20T19:03:40;93800;;;2.6;100.0
26178;BME280;13924;47.670;10.310;2023-12-20T19:18:39;93810;;;2.5;100.0
26178;BME280;13924;47.670;10.310;2023-12-20T19:33:39;93750;;;2.5;100.0
26178;BME280;13924;47.670;10.310;2023-12-20T19:48:39;93700;;;2.4;100.0
26178;BME280;13924;47.670;10.310;2023-12-20T20:03:44;93640;;;2.5;100.0
26178;BME280;13924;47.670;10.310;2023-12-20T20:18:41;93580;;;2.5;100.0
26178;BME280;13924;47.670;10.310;2023-12-20T20:33:45;93570;;;2.5;100.0
26178;BME280;13924;47.670;10.310;2023-12-20T20:48:44;93520;;;2.5;100.0
26178;BME280;13924;47.670;10.310;2023-12-20T21:03:45;93460;;;2.4;100.0
26178;BME280;13924;47.670;10.310;2023-12-20T21:18:47;93440;;;2.6;100.0
26178;BME280;13924;47.670;10.310;2023-12-20T21:33:49;93440;;;2.6;100.0
26178;BME280;13924;47.670;10.310;2023-12-20T21:48:47;93500;;;2.8;100.0
26178;BME280;13924;47.670;10.310;2023-12-20T22:03:50;93510;;;2.6;100.0
26178;BME280;13924;47.670;10.310;2023-12-20T22:18:49;93480;;;2.8;100.0
26178;BME280;13924;47.670;10.310;2023-12-20T22:33:50;93410;;;3.0;100.0
26178;BME280;13924;47.670;10.310;2023-12-20T22:48:54;93410;;;3.0;100.0
26178;BME280;13924;47.670;10.310;2023-12-20T23:00:45;93380;;;3.2;100.0
26178;BME280;13924;47.670;10.310;2023-12-20T23:15:43;93360;;;3.1;100.0
26178;BME280;13924;47.670;10.310;2023-12-20T23:30:46;93340;;;3.2;100.0
26178;BME280;13924;47.670;10.310;2023-12-20T23:45:43;93340;;;3.2;100.0
